Time;durP1;ratioP1;P1;durP2;ratioP2;P2;SDS_P1;SDS_P2;PMS_P1;PMS_P2;Temp;Humidity;BMP_temperature;BMP_pressure;BME280_temperature;BME280_humidity;BME280_pressure;Samples;Min_cycle;Max_cycle;Signal;HPM_P1;HPM_P2
2023/04/12 00:01:53;;;;;;;3.58;1.83;;;7.70;99.90;;;;;;5077636;28;20032;-85
2023/04/12 00:04:21;;;;;;;3.75;1.60;;;7.70;99.90;;;;;;5095928;28;20400;-84
2023/04/12 00:06:47;;;;;;;3.08;1.20;;;7.80;99.90;;;;;;5077498;28;20074;-85
2023/04/12 00:09:14;;;;;;;3.58;1.30;;;7.80;99.90;;;;;;5077411;28;20036;-84
2023/04/12 00:11:40;;;;;;;3.25;1.60;;;7.80;99.90;;;;;;5077560;28;20145;-84
2023/04/12 00:14:06;;;;;;;2.63;1.50;;;7.80;99.90;;;;;;5077280;28;20071;-84
2023/04/12 00:16:32;;;;;;;2.80;1.40;;;7.80;99.90;;;;;;5094139;28;20028;-84
2023/04/12 00:18:58;;;;;;;3.05;1.60;;;7.80;99.90;;;;;;5095640;28;20039;-84
2023/04/12 00:21:27;;;;;;;4.20;1.88;;;7.80;99.90;;;;;;5094088;28;20048;-85
2023/04/12 00:23:53;;;;;;;2.70;1.42;;;7.80;99.90;;;;;;5076514;28;20074;-84
2023/04/12 00:26:24;;;;;;;2.47;1.60;;;7.80;99.90;;;;;;5077493;28;20039;-84
2023/04/12 00:28:50;;;;;;;2.47;1.23;;;7.80;99.90;;;;;;5077179;28;20448;-84
2023/04/12 00:31:15;;;;;;;2.70;1.40;;;7.70;99.90;;;;;;5093761;28;20123;-85
2023/04/12 00:33:41;;;;;;;3.50;1.55;;;7.80;99.90;;;;;;5095300;28;20028;-85
2023/04/12 00:36:07;;;;;;;3.13;1.50;;;7.80;99.90;;;;;;5096021;28;20123;-84
2023/04/12 00:38:33;;;;;;;3.25;1.50;;;7.80;99.90;;;;;;5094941;28;20063;-85
2023/04/12 00:40:59;;;;;;;2.40;1.50;;;7.80;99.90;;;;;;5095233;28;20040;-85
2023/04/12 00:43:26;;;;;;;4.63;1.60;;;7.80;99.90;;;;;;5095167;28;20122;-84
2023/04/12 00:45:53;;;;;;;3.90;1.55;;;7.70;99.90;;;;;;5094779;28;20498;-84
2023/04/12 00:48:19;;;;;;;3.47;1.45;;;7.80;99.90;;;;;;5095063;28;20392;-85
2023/04/12 00:50:45;;;;;;;2.88;1.38;;;7.80;99.90;;;;;;5095310;28;20040;-84
2023/04/12 00:53:13;;;;;;;3.90;1.42;;;7.80;99.90;;;;;;5094598;28;20040;-85
2023/04/12 00:55:48;;;;;;;2.60;1.33;;;7.90;99.90;;;;;;5093375;28;20067;-84
2023/04/12 00:58:15;;;;;;;3.70;1.60;;;7.90;99.90;;;;;;5093388;28;20051;-84
2023/04/12 01:00:48;;;;;;;2.80;1.33;;;7.80;99.90;;;;;;5093239;28;20087;-85
2023/04/12 01:03:21;;;;;;;3.38;1.70;;;7.80;99.90;;;;;;5094503;28;20441;-84
2023/04/12 01:06:12;;;;;;;4.13;1.85;;;7.90;99.90;;;;;;5094761;28;20047;-84
2023/04/12 01:08:56;;;;;;;3.10;1.40;;;7.80;99.90;;;;;;5076588;28;20075;-85
2023/04/12 01:11:34;;;;;;;4.70;1.35;;;7.90;99.90;;;;;;5093346;28;20046;-84
2023/04/12 01:14:08;;;;;;;3.20;1.40;;;7.90;99.90;;;;;;5094776;28;20032;-85
2023/04/12 01:16:40;;;;;;;3.42;1.40;;;8.00;99.90;;;;;;5093020;28;20063;-85
2023/04/12 01:19:36;;;;;;;4.68;1.58;;;8.00;99.90;;;;;;5093061;28;20040;-85
2023/04/12 01:22:09;;;;;;;3.30;1.45;;;8.00;99.90;;;;;;5092657;28;20090;-85
2023/04/12 01:25:01;;;;;;;3.97;1.40;;;8.10;99.90;;;;;;5093362;28;20032;-85
2023/04/12 01:27:47;;;;;;;3.50;1.40;;;8.30;99.90;;;;;;5076170;28;20121;-85
2023/04/12 01:30:16;;;;;;;2.80;1.50;;;8.40;99.90;;;;;;5092362;28;20185;-84
2023/04/12 01:32:46;;;;;;;4.53;2.10;;;8.50;99.90;;;;;;5092978;28;20032;-84
2023/04/12 01:35:12;;;;;;;;;;;8.60;99.90;;;;;;5094328;28;20377;-84
2023/04/12 01:37:40;;;;;;;2.65;1.60;;;8.70;99.90;;;;;;5093300;28;19916;-84
2023/04/12 01:40:08;;;;;;;2.95;1.52;;;8.70;99.90;;;;;;5094126;28;20098;-84
2023/04/12 01:42:33;;;;;;;2.40;1.55;;;8.70;99.90;;;;;;5093864;28;20132;-84
2023/04/12 01:45:00;;;;;;;3.25;1.40;;;8.70;99.90;;;;;;5094209;28;20055;-84
2023/04/12 01:47:26;;;;;;;3.30;1.40;;;8.70;99.90;;;;;;5093681;28;20536;-84
2023/04/12 01:50:10;;;;;;;2.97;1.50;;;8.70;99.90;;;;;;5093876;28;20123;-84
2023/04/12 01:52:40;;;;;;;3.65;1.70;;;8.80;99.90;;;;;;5092471;28;20047;-85
2023/04/12 01:55:06;;;;;;;3.25;1.60;;;8.80;99.90;;;;;;5092507;28;20040;-84
2023/04/12 01:57:32;;;;;;;3.60;1.85;;;8.80;99.90;;;;;;5093942;28;20449;-84
2023/04/12 02:00:01;;;;;;;3.65;1.65;;;8.80;99.90;;;;;;5094429;28;20119;-84
2023/04/12 02:02:27;;;;;;;4.10;1.83;;;8.80;99.90;;;;;;5092184;28;20085;-84
2023/04/12 02:04:54;;;;;;;4.13;1.77;;;8.80;99.90;;;;;;5092561;28;20391;-84
2023/04/12 02:07:20;;;;;;;3.10;1.42;;;8.80;99.90;;;;;;5092526;28;20380;-84
2023/04/12 02:09:45;;;;;;;3.55;1.65;;;8.70;99.90;;;;;;5093675;28;20098;-83
2023/04/12 02:12:12;;;;;;;4.75;1.50;;;8.70;99.90;;;;;;5092154;28;20495;-84
2023/04/12 02:14:38;;;;;;;3.70;1.58;;;8.80;99.90;;;;;;5092167;28;20476;-84
2023/04/12 02:17:04;;;;;;;3.33;1.77;;;8.90;99.90;;;;;;5092060;28;20055;-84
2023/04/12 02:19:31;;;;;;;3.80;1.83;;;8.90;99.90;;;;;;5075290;28;20084;-84
2023/04/12 02:21:56;;;;;;;3.13;1.55;;;9.00;99.90;;;;;;5075185;28;20040;-84
2023/04/12 02:24:22;;;;;;;3.10;1.70;;;9.00;99.90;;;;;;5093430;28;20039;-84
2023/04/12 02:26:50;;;;;;;3.80;1.70;;;8.90;99.90;;;;;;5093564;28;20044;-84
2023/04/12 02:29:16;;;;;;;1.92;1.15;;;8.90;99.90;;;;;;5092046;28;20047;-84
2023/04/12 02:31:42;;;;;;;3.92;1.60;;;8.90;99.90;;;;;;5091952;28;20032;-84
2023/04/12 02:34:08;;;;;;;2.63;1.48;;;9.00;99.90;;;;;;5091942;28;20521;-84
2023/04/12 02:36:37;;;;;;;2.40;1.10;;;8.90;99.90;;;;;;5093526;28;20117;-84
2023/04/12 02:39:02;;;;;;;2.90;1.30;;;8.90;99.90;;;;;;5093123;28;20088;-84
2023/04/12 02:41:28;;;;;;;2.97;1.50;;;9.00;99.90;;;;;;5094072;28;20137;-84
2023/04/12 02:43:54;;;;;;;2.83;1.40;;;9.00;99.90;;;;;;5093981;28;20379;-84
2023/04/12 02:46:22;;;;;;;2.17;1.23;;;9.00;99.90;;;;;;5093444;28;20103;-84
2023/04/12 02:48:48;;;;;;;2.90;1.48;;;9.10;99.90;;;;;;5096590;28;20070;-84
2023/04/12 02:51:14;;;;;;;3.00;1.17;;;9.00;99.90;;;;;;5097310;28;20044;-84
2023/04/12 02:53:40;;;;;;;4.15;1.20;;;9.00;99.90;;;;;;5097319;28;20431;-84
2023/04/12 02:56:06;;;;;;;2.70;1.13;;;9.00;99.90;;;;;;5097379;28;20039;-84
2023/04/12 02:58:33;;;;;;;3.38;1.48;;;9.00;99.90;;;;;;5097214;28;20111;-84
2023/04/12 03:01:06;;;;;;;2.65;1.38;;;8.90;99.90;;;;;;5097093;28;20391;-84
2023/04/12 03:03:34;;;;;;;2.03;1.00;;;8.90;99.90;;;;;;5095878;28;20054;-84
2023/04/12 03:06:00;;;;;;;2.80;1.33;;;8.90;99.90;;;;;;5097045;28;20065;-84
2023/04/12 03:08:26;;;;;;;3.40;1.20;;;8.90;99.90;;;;;;5097497;28;20035;-83
2023/04/12 03:10:51;;;;;;;1.85;1.20;;;8.90;99.90;;;;;;5095494;28;20062;-84
2023/04/12 03:13:17;;;;;;;2.08;1.00;;;9.00;99.90;;;;;;5096931;28;20032;-84
2023/04/12 03:15:43;;;;;;;2.10;1.20;;;8.90;99.90;;;;;;5096910;28;20028;-83
2023/04/12 03:18:09;;;;;;;1.40;0.93;;;8.90;99.90;;;;;;5095654;28;20036;-84
2023/04/12 03:20:38;;;;;;;1.35;0.73;;;9.00;99.90;;;;;;5095211;28;20048;-84
2023/04/12 03:23:04;;;;;;;2.35;1.02;;;9.00;99.90;;;;;;5095179;28;20128;-84
2023/04/12 03:25:30;;;;;;;1.90;0.90;;;9.00;99.90;;;;;;5095037;28;20032;-84
2023/04/12 03:27:55;;;;;;;2.78;1.30;;;8.90;99.90;;;;;;5095379;28;20071;-84
2023/04/12 03:30:21;;;;;;;2.40;1.17;;;9.00;99.90;;;;;;5096317;28;20075;-84
2023/04/12 03:32:47;;;;;;;2.47;1.27;;;9.00;99.90;;;;;;5095037;28;20052;-83
2023/04/12 03:35:12;;;;;;;1.45;1.05;;;9.00;99.90;;;;;;5096591;28;20028;-83
2023/04/12 03:37:40;;;;;;;1.77;1.02;;;9.10;99.90;;;;;;5095891;28;20400;-83
2023/04/12 03:40:07;;;;;;;2.25;1.25;;;9.00;99.90;;;;;;5096235;28;20080;-84
2023/04/12 03:42:32;;;;;;;3.28;1.20;;;9.10;99.90;;;;;;5096483;28;20072;-84
2023/04/12 03:44:58;;;;;;;2.63;1.35;;;9.10;99.90;;;;;;5096138;28;20170;-84
2023/04/12 03:47:24;;;;;;;2.63;1.20;;;9.00;99.90;;;;;;5096356;28;20112;-84
2023/04/12 03:49:49;;;;;;;1.85;1.08;;;9.00;99.90;;;;;;5095925;28;20028;-83
2023/04/12 03:52:15;;;;;;;2.08;1.42;;;9.00;99.90;;;;;;5095838;28;20040;-83
2023/04/12 03:54:40;;;;;;;2.20;1.30;;;9.00;99.90;;;;;;5096174;28;20071;-83
2023/04/12 03:57:06;;;;;;;2.50;1.23;;;9.00;99.90;;;;;;5096153;28;20109;-83
2023/04/12 03:59:32;;;;;;;2.00;1.50;;;9.00;99.90;;;;;;5094857;28;20064;-83
2023/04/12 04:02:01;;;;;;;3.42;1.35;;;8.90;99.90;;;;;;5095694;28;20036;-83
2023/04/12 04:04:27;;;;;;;3.50;1.40;;;8.90;99.90;;;;;;5096047;28;20123;-83
2023/04/12 04:06:53;;;;;;;2.88;1.48;;;8.80;99.90;;;;;;5094646;28;20040;-83
2023/04/12 04:09:19;;;;;;;3.22;1.50;;;8.80;99.90;;;;;;5095880;28;20040;-83
2023/04/12 04:11:45;;;;;;;2.88;1.30;;;8.80;99.90;;;;;;5094667;28;20047;-83
2023/04/12 04:14:12;;;;;;;3.97;1.85;;;8.80;99.90;;;;;;5095411;28;20040;-83
2023/04/12 04:16:37;;;;;;;2.58;1.42;;;8.80;99.90;;;;;;5095780;28;20043;-83
2023/04/12 04:19:03;;;;;;;3.03;1.40;;;8.80;99.90;;;;;;5095578;28;20028;-83
2023/04/12 04:21:29;;;;;;;2.92;1.42;;;8.70;99.90;;;;;;5095613;28;20392;-83
2023/04/12 04:23:57;;;;;;;2.38;1.40;;;8.70;99.90;;;;;;5094311;28;20040;-83
2023/04/12 04:26:31;;;;;;;1.48;1.27;;;8.80;99.90;;;;;;5095448;28;20044;-83
2023/04/12 04:29:00;;;;;;;3.10;1.40;;;8.80;99.90;;;;;;5095162;28;20123;-83
2023/04/12 04:31:33;;;;;;;2.72;1.77;;;8.70;99.90;;;;;;5093891;28;20400;-82
2023/04/12 04:34:07;;;;;;;2.20;1.40;;;8.70;99.90;;;;;;5095437;28;20047;-83
2023/04/12 04:36:36;;;;;;;2.00;1.30;;;8.80;99.90;;;;;;5095390;28;20391;-82
2023/04/12 04:39:03;;;;;;;2.28;1.40;;;8.70;99.90;;;;;;5094989;28;20070;-83
2023/04/12 04:41:33;;;;;;;3.25;1.70;;;8.60;99.90;;;;;;5094088;28;20044;-83
2023/04/12 04:44:03;;;;;;;;;;;8.60;99.90;;;;;;5095658;28;20040;-82
2023/04/12 04:46:29;;;;;;;2.80;1.50;;;8.60;99.90;;;;;;5095217;28;19916;-82
2023/04/12 04:48:57;;;;;;;2.58;1.27;;;8.50;99.90;;;;;;5095141;28;20041;-83
2023/04/12 04:51:23;;;;;;;3.47;1.40;;;8.50;99.90;;;;;;5094993;28;20434;-83
2023/04/12 04:53:49;;;;;;;2.35;1.30;;;8.50;99.90;;;;;;5095022;28;20426;-83
2023/04/12 04:56:14;;;;;;;2.65;1.30;;;8.50;99.90;;;;;;5094926;28;20038;-83
2023/04/12 04:58:40;;;;;;;2.85;1.50;;;8.60;99.90;;;;;;5094628;28;20043;-82
2023/04/12 05:01:06;;;;;;;3.58;1.50;;;8.50;99.90;;;;;;5094908;28;20044;-82
2023/04/12 05:03:32;;;;;;;1.70;1.25;;;8.60;99.90;;;;;;5094790;28;20032;-83
2023/04/12 05:06:00;;;;;;;1.95;1.25;;;8.60;99.90;;;;;;5094429;28;20044;-82
2023/04/12 05:08:27;;;;;;;1.98;1.40;;;8.60;99.90;;;;;;5094690;28;20043;-82
2023/04/12 05:10:57;;;;;;;2.05;1.20;;;8.50;99.90;;;;;;5094218;28;20048;-82
2023/04/12 05:13:23;;;;;;;4.00;1.40;;;8.60;99.90;;;;;;5094611;28;20119;-82
2023/04/12 05:15:49;;;;;;;1.55;1.00;;;8.70;99.90;;;;;;5127426;27;20121;-82
2023/04/12 05:18:14;;;;;;;1.88;1.40;;;8.60;99.90;;;;;;5093308;28;20071;-82
2023/04/12 05:20:40;;;;;;;2.28;1.30;;;8.50;99.90;;;;;;5094414;28;20044;-72
2023/04/12 05:23:06;;;;;;;1.80;1.33;;;8.50;99.90;;;;;;5126932;27;20052;-81
2023/04/12 05:25:32;;;;;;;2.55;1.40;;;8.50;99.90;;;;;;5093157;28;20032;-80
2023/04/12 05:27:58;;;;;;;2.10;1.17;;;8.60;99.90;;;;;;5075873;28;20526;-81
2023/04/12 05:30:23;;;;;;;2.75;1.40;;;8.50;99.90;;;;;;5094225;28;20089;-78
2023/04/12 05:32:49;;;;;;;2.17;1.20;;;8.50;99.90;;;;;;5093040;28;20063;-79
2023/04/12 05:35:15;;;;;;;2.08;1.25;;;8.50;99.90;;;;;;5092680;28;20040;-79
2023/04/12 05:37:40;;;;;;;2.22;1.15;;;8.50;99.90;;;;;;5092565;28;20184;-80
2023/04/12 05:40:08;;;;;;;2.38;1.30;;;8.50;99.90;;;;;;5094050;28;20052;-80
2023/04/12 05:42:36;;;;;;;1.50;1.17;;;8.50;99.90;;;;;;5092879;28;20032;-80
2023/04/12 05:45:02;;;;;;;2.67;1.15;;;8.50;99.90;;;;;;5093992;28;20051;-78
2023/04/12 05:47:28;;;;;;;1.55;1.20;;;8.50;99.90;;;;;;5094016;28;20089;-81
2023/04/12 05:49:54;;;;;;;1.77;1.30;;;8.50;99.90;;;;;;5092394;28;20040;-71
2023/04/12 05:52:19;;;;;;;2.75;1.50;;;8.50;99.90;;;;;;5093674;28;20048;-71
2023/04/12 05:54:45;;;;;;;2.20;1.42;;;8.50;99.90;;;;;;5092484;28;20070;-72
2023/04/12 05:57:11;;;;;;;3.05;1.30;;;8.50;99.90;;;;;;5093820;28;20495;-71
2023/04/12 05:59:37;;;;;;;1.70;1.60;;;8.40;99.90;;;;;;5092267;28;20044;-71
2023/04/12 06:02:03;;;;;;;2.30;1.20;;;8.40;99.90;;;;;;5075686;28;20100;-70
2023/04/12 06:04:28;;;;;;;1.55;0.90;;;8.40;99.90;;;;;;5093777;28;20493;-71
2023/04/12 06:06:55;;;;;;;1.85;1.10;;;8.50;99.90;;;;;;5093847;28;20367;-71
2023/04/12 06:09:21;;;;;;;1.75;1.20;;;8.40;99.90;;;;;;5092181;28;20052;-77
2023/04/12 06:11:46;;;;;;;2.35;1.25;;;8.50;99.90;;;;;;5092533;28;20063;-88
2023/04/12 06:14:12;;;;;;;3.60;1.50;;;8.50;99.90;;;;;;5094346;28;20056;-88
2023/04/12 06:16:37;;;;;;;1.65;1.20;;;8.50;99.90;;;;;;5093193;28;20047;-87
2023/04/12 06:19:04;;;;;;;2.72;1.40;;;8.40;99.90;;;;;;5093030;28;20040;-88
2023/04/12 06:21:30;;;;;;;2.42;1.60;;;8.40;99.90;;;;;;5093107;28;20109;-88
2023/04/12 06:23:55;;;;;;;2.63;1.70;;;8.50;99.90;;;;;;5097797;28;20475;-88
2023/04/12 06:26:21;;;;;;;2.63;1.45;;;8.40;99.90;;;;;;5097180;28;20044;-87
2023/04/12 06:28:47;;;;;;;1.75;1.20;;;8.50;99.90;;;;;;5097256;28;20040;-87
2023/04/12 06:31:14;;;;;;;1.88;1.17;;;8.40;99.90;;;;;;5098221;28;20057;-87
2023/04/12 06:33:40;;;;;;;1.77;1.30;;;8.40;99.90;;;;;;5097953;28;20039;-73
2023/04/12 06:36:06;;;;;;;2.65;1.60;;;8.40;99.90;;;;;;5097659;28;20028;-72
2023/04/12 06:38:31;;;;;;;2.63;1.30;;;8.30;99.90;;;;;;5095953;28;20499;-87
2023/04/12 06:40:57;;;;;;;2.05;1.42;;;8.40;99.90;;;;;;5098444;28;20048;-90
2023/04/12 06:43:23;;;;;;;1.40;1.30;;;8.50;99.90;;;;;;5098062;28;20059;-86
2023/04/12 06:45:51;;;;;;;2.17;1.13;;;8.40;99.90;;;;;;5098207;28;20040;-87
2023/04/12 06:48:17;;;;;;;2.40;1.70;;;8.40;99.90;;;;;;5096178;28;20044;-76
2023/04/12 06:50:44;;;;;;;3.78;2.05;;;8.30;99.90;;;;;;5095841;28;20043;-76
2023/04/12 06:53:09;;;;;;;1.85;1.27;;;8.30;99.90;;;;;;5097609;28;20036;-76
2023/04/12 06:55:35;;;;;;;1.92;1.20;;;8.40;99.90;;;;;;5095695;28;20065;-76
2023/04/12 06:58:00;;;;;;;2.53;1.70;;;8.40;99.90;;;;;;5078751;28;20040;-76
2023/04/12 07:00:26;;;;;;;2.17;1.40;;;8.40;99.90;;;;;;5095936;28;20400;-77
2023/04/12 07:02:52;;;;;;;3.92;1.55;;;8.50;99.90;;;;;;5095722;28;20044;-74
2023/04/12 07:05:17;;;;;;;2.75;1.50;;;8.40;99.90;;;;;;5095446;28;20047;-74
2023/04/12 07:07:44;;;;;;;1.88;1.30;;;8.60;99.90;;;;;;5095756;28;20071;-74
2023/04/12 07:10:10;;;;;;;3.75;1.40;;;8.60;99.90;;;;;;5095355;28;20040;-72
2023/04/12 07:12:35;;;;;;;2.20;1.38;;;8.60;99.90;;;;;;5095841;28;20059;-73
2023/04/12 07:15:01;;;;;;;1.92;1.20;;;8.50;99.90;;;;;;5129471;27;20468;-74
2023/04/12 07:17:27;;;;;;;2.17;1.30;;;8.50;99.90;;;;;;5130144;27;20032;-73
2023/04/12 07:19:55;;;;;;;2.20;2.00;;;8.50;99.90;;;;;;5095516;28;20035;-73
2023/04/12 07:22:21;;;;;;;1.35;1.25;;;8.40;99.90;;;;;;5078363;28;20515;-72
2023/04/12 07:24:49;;;;;;;2.10;1.42;;;8.50;99.90;;;;;;5078621;28;20036;-74
2023/04/12 07:27:15;;;;;;;2.85;1.58;;;8.50;99.90;;;;;;5078094;28;20122;-74
2023/04/12 07:29:40;;;;;;;2.42;1.50;;;8.50;99.90;;;;;;5078053;28;20475;-73
2023/04/12 07:32:08;;;;;;;2.17;1.45;;;8.50;99.90;;;;;;5094971;28;20046;-73
2023/04/12 07:34:35;;;;;;;2.20;1.50;;;8.60;99.90;;;;;;5094880;28;20082;-73
2023/04/12 07:37:01;;;;;;;1.92;1.52;;;8.60;99.90;;;;;;5096064;28;20519;-73
2023/04/12 07:39:28;;;;;;;2.10;1.67;;;8.50;99.90;;;;;;5094649;28;20092;-73
2023/04/12 07:41:55;;;;;;;1.90;1.48;;;8.40;99.90;;;;;;5078285;28;20098;-73
2023/04/12 07:44:20;;;;;;;3.05;1.80;;;8.50;99.90;;;;;;5094848;28;20039;-74
2023/04/12 07:46:46;;;;;;;2.38;1.55;;;8.50;99.90;;;;;;5077849;28;20043;-75
2023/04/12 07:49:12;;;;;;;1.70;1.50;;;8.50;99.90;;;;;;5129005;27;20118;-73
2023/04/12 07:51:37;;;;;;;2.60;1.40;;;8.50;99.90;;;;;;5096059;28;20036;-73
2023/04/12 07:54:03;;;;;;;3.03;1.33;;;8.50;99.90;;;;;;5094845;28;20127;-74
2023/04/12 07:56:32;;;;;;;1.73;1.20;;;8.50;99.90;;;;;;5077614;28;20487;-74
2023/04/12 07:58:58;;;;;;;2.05;1.40;;;8.50;99.90;;;;;;5077667;28;20122;-74
2023/04/12 08:01:23;;;;;;;1.73;1.30;;;8.50;99.90;;;;;;5094732;28;20471;-74
2023/04/12 08:03:49;;;;;;;2.33;1.52;;;8.60;99.90;;;;;;5128457;27;20492;-74
2023/04/12 08:06:16;;;;;;;1.55;1.45;;;8.40;99.90;;;;;;5095928;28;20032;-73
2023/04/12 08:08:41;;;;;;;2.58;1.30;;;8.60;99.90;;;;;;5077432;28;20040;-72
2023/04/12 08:11:07;;;;;;;2.42;1.48;;;8.60;99.90;;;;;;5095788;28;20047;-72
2023/04/12 08:13:33;;;;;;;1.40;1.30;;;8.50;99.90;;;;;;5095780;28;20040;-72
2023/04/12 08:15:59;;;;;;;1.75;1.33;;;8.60;99.90;;;;;;5095870;28;20111;-73
2023/04/12 08:18:26;;;;;;;2.35;1.40;;;8.60;99.90;;;;;;5077325;28;20111;-74
2023/04/12 08:20:52;;;;;;;2.50;1.35;;;8.60;99.90;;;;;;5095619;28;20044;-74
2023/04/12 08:23:17;;;;;;;1.65;1.33;;;8.70;99.90;;;;;;5094020;28;20407;-73
2023/04/12 08:25:43;;;;;;;2.17;1.42;;;8.50;99.90;;;;;;5095375;28;20093;-72
2023/04/12 08:28:08;;;;;;;1.75;1.33;;;8.60;99.90;;;;;;5093938;28;20365;-73
2023/04/12 08:30:35;;;;;;;1.40;1.20;;;8.60;99.90;;;;;;5095301;28;20040;-72
2023/04/12 08:33:01;;;;;;;3.28;1.65;;;8.70;99.90;;;;;;5094003;28;20054;-72
2023/04/12 08:35:27;;;;;;;2.33;1.50;;;8.70;99.90;;;;;;5076964;28;20122;-74
2023/04/12 08:37:52;;;;;;;1.48;1.20;;;8.70;99.90;;;;;;5093547;28;20095;-74
2023/04/12 08:40:20;;;;;;;1.58;1.48;;;8.70;99.90;;;;;;5095291;28;20044;-74
2023/04/12 08:42:46;;;;;;;1.48;1.30;;;8.70;99.90;;;;;;5093895;28;20426;-74
2023/04/12 08:45:12;;;;;;;1.50;1.40;;;8.80;99.90;;;;;;5094254;28;20480;-73
2023/04/12 08:47:43;;;;;;;1.50;1.40;;;8.80;99.90;;;;;;5094584;28;20035;-73
2023/04/12 08:50:12;;;;;;;1.38;1.27;;;8.90;99.90;;;;;;5094659;28;20044;-73
2023/04/12 08:52:38;;;;;;;1.50;1.40;;;8.90;99.90;;;;;;5094969;28;20044;-73
2023/04/12 08:55:08;;;;;;;1.40;1.30;;;9.00;99.90;;;;;;5095075;28;20039;-74
2023/04/12 08:57:35;;;;;;;1.55;1.30;;;9.00;99.90;;;;;;5076469;28;20044;-73
2023/04/12 09:00:02;;;;;;;1.70;1.40;;;9.10;99.90;;;;;;5094515;28;20542;-73
2023/04/12 09:02:28;;;;;;;1.63;1.30;;;9.10;99.90;;;;;;5094826;28;20043;-71
2023/04/12 09:04:54;;;;;;;1.40;1.30;;;9.00;99.90;;;;;;5094729;28;20032;-71
2023/04/12 09:07:26;;;;;;;1.45;1.35;;;9.20;99.90;;;;;;5093260;28;20123;-73
2023/04/12 09:09:52;;;;;;;1.33;1.23;;;9.10;99.90;;;;;;5093139;28;20115;-80
2023/04/12 09:12:21;;;;;;;1.25;1.15;;;9.10;99.90;;;;;;5093064;28;20123;-80
2023/04/12 09:14:46;;;;;;;1.50;1.40;;;9.20;99.90;;;;;;5093030;28;20046;-80
2023/04/12 09:17:23;;;;;;;1.30;1.20;;;9.10;99.90;;;;;;5094616;28;20028;-82
2023/04/12 09:19:49;;;;;;;1.40;1.30;;;9.10;99.90;;;;;;5092931;28;20410;-81
2023/04/12 09:22:15;;;;;;;1.25;1.20;;;9.10;99.90;;;;;;5094445;28;20040;-83
2023/04/12 09:24:49;;;;;;;1.65;1.30;;;9.10;99.90;;;;;;5127195;27;20047;-73
2023/04/12 09:27:15;;;;;;;1.55;1.40;;;9.10;99.90;;;;;;5094124;28;20036;-72
2023/04/12 09:29:40;;;;;;;1.85;1.40;;;9.10;99.90;;;;;;5092795;28;20385;-72
2023/04/12 09:32:08;;;;;;;1.50;1.40;;;9.10;99.90;;;;;;5092670;28;20126;-72
2023/04/12 09:34:34;;;;;;;1.60;1.50;;;9.00;99.90;;;;;;5126853;27;20044;-72
2023/04/12 09:37:14;;;;;;;1.60;1.42;;;9.10;99.90;;;;;;5094304;28;20032;-71
2023/04/12 09:39:41;;;;;;;1.63;1.50;;;9.00;99.90;;;;;;5092567;28;20055;-71
2023/04/12 09:42:11;;;;;;;1.92;1.67;;;9.00;99.90;;;;;;5094616;28;20059;-71
2023/04/12 09:44:38;;;;;;;;;;;9.10;99.90;;;;;;5093201;28;20048;-71
2023/04/12 09:47:04;;;;;;;1.70;1.60;;;9.00;99.90;;;;;;5076137;28;19916;-71
2023/04/12 09:49:41;;;;;;;2.20;2.10;;;8.80;99.90;;;;;;5092468;28;20253;-71
2023/04/12 09:52:09;;;;;;;2.33;2.13;;;8.90;99.90;;;;;;5093877;28;20040;-69
2023/04/12 09:54:43;;;;;;;2.25;2.00;;;8.90;99.90;;;;;;5092633;28;20052;-76
2023/04/12 09:57:10;;;;;;;1.92;1.83;;;9.00;99.90;;;;;;5092435;28;20044;-73
2023/04/12 09:59:40;;;;;;;1.83;1.73;;;9.30;99.90;;;;;;5126402;27;20559;-73
2023/04/12 10:02:07;;;;;;;2.03;1.92;;;9.30;99.90;;;;;;5093929;28;20120;-73
2023/04/12 10:04:36;;;;;;;2.30;2.10;;;9.40;99.90;;;;;;5092603;28;20119;-73
2023/04/12 10:07:02;;;;;;;1.90;1.80;;;9.50;99.90;;;;;;5076107;28;20144;-73
2023/04/12 10:09:28;;;;;;;1.85;1.75;;;9.60;99.90;;;;;;5093838;28;20054;-78
2023/04/12 10:11:54;;;;;;;1.80;1.70;;;9.80;99.90;;;;;;5093711;28;20044;-80
2023/04/12 10:14:21;;;;;;;2.10;1.90;;;9.90;99.90;;;;;;5092212;28;20043;-79
2023/04/12 10:16:48;;;;;;;1.83;1.73;;;10.00;99.90;;;;;;5093739;28;20430;-79
2023/04/12 10:19:15;;;;;;;2.13;1.92;;;10.10;99.90;;;;;;5092395;28;20040;-79
2023/04/12 10:21:41;;;;;;;1.98;1.80;;;10.20;99.90;;;;;;5093755;28;20205;-78
2023/04/12 10:24:08;;;;;;;1.63;1.52;;;10.30;99.90;;;;;;5092052;28;20079;-80
2023/04/12 10:26:34;;;;;;;1.63;1.52;;;10.20;99.90;;;;;;5092145;28;20052;-84
2023/04/12 10:29:23;;;;;;;1.73;1.60;;;10.20;99.90;;;;;;5092515;28;20373;-75
2023/04/12 10:31:49;;;;;;;1.60;1.50;;;10.20;99.90;;;;;;5093445;28;20062;-74
2023/04/12 10:34:15;;;;;;;1.90;1.80;;;10.30;99.90;;;;;;5126089;28;20520;-74
2023/04/12 10:36:52;;;;;;;1.50;1.40;;;10.30;99.90;;;;;;5075055;28;20097;-76
2023/04/12 10:39:33;;;;;;;2.05;1.40;;;10.40;99.90;;;;;;5093231;28;20052;-75
2023/04/12 10:42:16;;;;;;;2.63;1.38;;;10.50;99.90;;;;;;5093540;28;20044;-74
2023/04/12 10:44:42;;;;;;;1.60;1.50;;;10.70;99.90;;;;;;5093109;28;20032;-73
2023/04/12 10:47:10;;;;;;;2.22;1.48;;;10.70;99.90;;;;;;5126065;28;20047;-74
2023/04/12 10:49:37;;;;;;;2.22;1.60;;;10.80;99.90;;;;;;5126099;28;20487;-73
2023/04/12 10:52:09;;;;;;;1.98;1.38;;;11.00;99.90;;;;;;5092067;28;20040;-73
2023/04/12 10:54:35;;;;;;;1.77;1.58;;;10.90;99.90;;;;;;5092081;28;20428;-73
2023/04/12 10:57:05;;;;;;;1.80;1.70;;;11.00;99.90;;;;;;5091811;28;20044;-73
2023/04/12 10:59:50;;;;;;;1.70;1.60;;;11.10;99.90;;;;;;5093413;28;20079;-77
2023/04/12 11:02:16;;;;;;;2.42;1.98;;;11.10;99.90;;;;;;5074835;28;20040;-74
2023/04/12 11:05:08;;;;;;;2.13;1.88;;;11.10;99.90;;;;;;5091677;28;20036;-74
2023/04/12 11:07:41;;;;;;;2.10;1.90;;;11.00;99.90;;;;;;5091707;28;20082;-75
2023/04/12 11:10:15;;;;;;;1.83;1.63;;;11.20;99.90;;;;;;5096702;28;20072;-75
2023/04/12 11:12:47;;;;;;;1.95;1.60;;;11.30;99.90;;;;;;5078490;28;20123;-75
2023/04/12 11:15:13;;;;;;;2.17;1.70;;;11.00;99.90;;;;;;5095790;28;20098;-75
2023/04/12 11:17:38;;;;;;;2.05;1.40;;;11.00;99.90;;;;;;5129597;27;20040;-76
2023/04/12 11:20:09;;;;;;;3.05;2.00;;;11.30;99.90;;;;;;5078768;28;20036;-74
2023/04/12 11:22:35;;;;;;;3.20;1.77;;;11.30;99.90;;;;;;5096784;28;20040;-74
2023/04/12 11:25:02;;;;;;;2.88;1.55;;;11.60;99.90;;;;;;5095209;28;20079;-74
2023/04/12 11:27:28;;;;;;;2.47;1.90;;;11.80;99.90;;;;;;5096388;28;20044;-73
2023/04/12 11:29:56;;;;;;;2.22;1.40;;;11.70;99.90;;;;;;5096668;28;20040;-75
2023/04/12 11:32:27;;;;;;;3.35;1.73;;;11.70;99.90;;;;;;5096539;28;20055;-75
2023/04/12 11:34:54;;;;;;;3.15;1.58;;;11.80;99.90;;;;;;5095380;28;20036;-75
2023/04/12 11:37:21;;;;;;;2.42;1.50;;;11.80;99.90;;;;;;5094867;28;20055;-75
2023/04/12 11:39:52;;;;;;;2.63;1.40;;;11.80;99.90;;;;;;5094803;28;20048;-75
2023/04/12 11:42:23;;;;;;;2.33;1.40;;;11.70;99.90;;;;;;5096403;28;20052;-75
2023/04/12 11:44:51;;;;;;;4.20;1.55;;;11.60;99.90;;;;;;5078154;28;20043;-75
2023/04/12 11:47:21;;;;;;;3.70;1.75;;;11.60;99.90;;;;;;5094976;28;20051;-75
2023/04/12 11:49:51;;;;;;;2.83;1.40;;;11.80;99.90;;;;;;5096400;28;20039;-74
2023/04/12 11:52:18;;;;;;;2.13;1.25;;;11.80;99.90;;;;;;5094884;28;20041;-74
2023/04/12 11:54:46;;;;;;;2.67;1.60;;;12.00;99.90;;;;;;5094604;28;20040;-74
2023/04/12 11:57:13;;;;;;;2.72;1.67;;;12.10;99.90;;;;;;5094561;28;20044;-73
2023/04/12 11:59:41;;;;;;;2.70;1.55;;;12.20;99.90;;;;;;5094499;28;20047;-74
2023/04/12 12:02:08;;;;;;;3.50;1.35;;;12.30;99.90;;;;;;5094819;28;20059;-74
2023/04/12 12:04:34;;;;;;;3.25;1.50;;;12.40;99.90;;;;;;5096043;28;20044;-74
2023/04/12 12:07:00;;;;;;;3.78;1.77;;;12.50;99.90;;;;;;5094363;28;20032;-74
2023/04/12 12:09:26;;;;;;;3.50;1.80;;;12.60;99.90;;;;;;5095952;28;20036;-74
2023/04/12 12:11:53;;;;;;;3.55;1.40;;;12.60;99.90;;;;;;5094303;28;20395;-74
2023/04/12 12:14:19;;;;;;;3.58;1.65;;;12.70;99.90;;;;;;5095744;28;20136;-73
2023/04/12 12:16:52;;;;;;;3.22;1.58;;;12.60;99.90;;;;;;5077319;28;20119;-73
2023/04/12 12:19:28;;;;;;;3.45;1.50;;;13.00;99.90;;;;;;5093917;28;20055;-74
2023/04/12 12:22:24;;;;;;;4.38;1.50;;;13.20;99.90;;;;;;5093722;28;20507;-75
2023/04/12 12:24:50;;;;;;;4.18;1.40;;;13.30;99.90;;;;;;5095302;28;20048;-75
2023/04/12 12:27:29;;;;;;;2.85;1.15;;;13.30;99.90;;;;;;5094060;28;20112;-75
2023/04/12 12:29:54;;;;;;;2.53;1.55;;;13.40;99.90;;;;;;5095418;28;20043;-75
2023/04/12 12:32:22;;;;;;;3.03;1.48;;;12.90;99.90;;;;;;5128134;27;20036;-75
2023/04/12 12:34:53;;;;;;;4.45;1.70;;;12.90;99.90;;;;;;5094075;28;20044;-75
2023/04/12 12:37:29;;;;;;;3.58;1.50;;;12.70;99.90;;;;;;5093736;28;20044;-75
2023/04/12 12:40:06;;;;;;;4.30;1.52;;;12.60;99.90;;;;;;5095556;28;20044;-75
2023/04/12 12:42:34;;;;;;;3.20;1.60;;;12.50;99.90;;;;;;5094090;28;20055;-76
2023/04/12 12:45:03;;;;;;;4.35;1.80;;;12.50;99.90;;;;;;5095162;28;20036;-75
2023/04/12 12:47:29;;;;;;;3.58;1.40;;;12.40;99.90;;;;;;5076785;28;20081;-75
2023/04/12 12:49:55;;;;;;;4.45;1.40;;;12.30;99.90;;;;;;5076630;28;20071;-75
2023/04/12 12:52:21;;;;;;;2.88;1.50;;;12.20;99.90;;;;;;5093750;28;20075;-74
2023/04/12 12:54:46;;;;;;;5.15;1.65;;;12.20;99.90;;;;;;5093721;28;20392;-74
2023/04/12 12:57:12;;;;;;;3.67;1.42;;;12.30;99.90;;;;;;5093433;28;20036;-75
2023/04/12 12:59:37;;;;;;;4.63;1.50;;;12.50;99.90;;;;;;5094925;28;20032;-75